Terminal Aerodrome Forecast
Issued by NWS

Current Version | Previous Version | Text Only | Print | Product List | Glossary Off
Versions: 1 2 3 4 5 6 7 8 9 10 11 12 13 14 15 16 17 18 19 20 21 22 23 24 25 26

000
FTUS41 KILN 032100 AAA
TAFLCK
TAF AMD
KLCK 032116Z 0321/0418 18011KT 1SM -RA OVC003
     FM032300 22012G20KT 3SM -SHRA BR OVC008
     FM040500 27008KT 4SM -RA BR OVC007
     FM041200 33008KT 2SM -SN BR OVC006=

USA.gov is the U.S. government's official web portal to all federal, state and local government web resources and services.